createdAt,value
2023-07-23T00:02:04.091Z,97450.34
2023-07-23T00:04:32.309Z,97450.32
2023-07-23T00:06:59.463Z,97458.53
2023-07-23T00:09:26.663Z,97460.67
2023-07-23T00:11:53.950Z,97446.55
2023-07-23T00:14:21.244Z,97446.33
2023-07-23T00:16:48.733Z,97450.61
2023-07-23T00:19:21.791Z,97450.00
2023-07-23T00:21:49.824Z,97452.55
2023-07-23T00:24:20.014Z,97454.67
2023-07-23T00:26:47.088Z,97459.55
2023-07-23T00:29:14.438Z,97464.23
2023-07-23T00:31:41.778Z,97468.34
2023-07-23T00:34:09.879Z,97474.00
2023-07-23T00:36:37.225Z,97477.92
2023-07-23T00:39:05.952Z,97480.67
2023-07-23T00:41:33.938Z,97477.92
2023-07-23T00:44:01.695Z,97470.08
2023-07-23T00:46:28.969Z,97466.58
2023-07-23T00:48:56.128Z,97463.28
2023-07-23T00:51:23.669Z,97458.02
2023-07-23T00:53:51.156Z,97458.62
2023-07-23T00:56:19.280Z,97458.85
2023-07-23T00:58:47.610Z,97451.03
2023-07-23T01:01:14.943Z,97443.62
2023-07-23T01:03:42.596Z,97446.84
2023-07-23T01:06:12.260Z,97451.00
2023-07-23T01:08:41.556Z,97449.67
2023-07-23T01:11:09.717Z,97446.92
2023-07-23T01:13:37.643Z,97442.98
2023-07-23T01:16:08.116Z,97443.38
2023-07-23T01:18:38.915Z,97443.56
2023-07-23T01:21:06.564Z,97445.93
2023-07-23T01:23:34.099Z,97442.77
2023-07-23T01:26:01.886Z,97442.15
2023-07-23T01:28:29.303Z,97448.02
2023-07-23T01:30:56.800Z,97449.53
2023-07-23T01:33:24.302Z,97443.02
2023-07-23T01:35:57.112Z,97434.97
2023-07-23T01:38:24.935Z,97432.20
2023-07-23T01:40:58.189Z,97431.39
2023-07-23T01:43:25.414Z,97432.91
2023-07-23T01:45:53.714Z,97435.83
2023-07-23T01:48:22.541Z,97432.86
2023-07-23T01:50:50.563Z,97422.44
2023-07-23T01:53:18.019Z,97428.09
2023-07-23T01:55:45.351Z,97434.34
2023-07-23T01:58:12.651Z,97443.36
2023-07-23T02:00:39.717Z,97456.04
2023-07-23T02:03:06.968Z,97462.31
2023-07-23T02:05:34.358Z,97460.91
2023-07-23T02:08:02.539Z,97466.56
2023-07-23T02:10:29.652Z,97464.80
2023-07-23T02:12:57.079Z,97464.36
2023-07-23T02:15:24.464Z,97475.92
2023-07-23T02:17:52.047Z,97473.77
2023-07-23T02:20:19.116Z,97475.77
2023-07-23T02:22:47.993Z,97468.68
2023-07-23T02:25:15.264Z,97468.91
2023-07-23T02:27:42.516Z,97466.16
2023-07-23T02:30:10.710Z,97471.62
2023-07-23T02:32:38.267Z,97465.34
2023-07-23T02:35:06.832Z,97467.86
2023-07-23T02:37:34.027Z,97462.02
2023-07-23T02:40:01.163Z,97453.23
2023-07-23T02:42:28.635Z,97453.27
2023-07-23T02:44:55.900Z,97451.33
2023-07-23T02:47:23.095Z,97451.14
2023-07-23T02:49:50.335Z,97444.50
2023-07-23T02:52:17.605Z,97438.88
2023-07-23T02:54:44.967Z,97437.34
2023-07-23T02:57:12.536Z,97433.70
2023-07-23T02:59:39.741Z,97421.59
2023-07-23T03:02:07.003Z,97426.91
2023-07-23T03:04:34.188Z,97429.08
2023-07-23T03:07:01.441Z,97440.09
2023-07-23T03:09:28.949Z,97437.16
2023-07-23T03:11:56.224Z,97441.27
2023-07-23T03:14:23.242Z,97441.25
2023-07-23T03:16:50.553Z,97446.55
2023-07-23T03:19:17.793Z,97435.54
2023-07-23T03:21:46.217Z,97439.05
2023-07-23T03:24:13.682Z,97450.61
2023-07-23T03:26:40.854Z,97458.23
2023-07-23T03:29:08.437Z,97456.86
2023-07-23T03:31:35.859Z,97460.78
2023-07-23T03:34:03.177Z,97459.22
2023-07-23T03:36:30.216Z,97463.50
2023-07-23T03:38:57.258Z,97463.67
2023-07-23T03:41:24.710Z,97472.89
2023-07-23T03:43:52.090Z,97491.91
2023-07-23T03:46:20.056Z,97503.97
2023-07-23T03:48:48.196Z,97517.91
2023-07-23T03:51:16.543Z,97536.02
2023-07-23T03:53:43.808Z,97526.09
2023-07-23T03:56:10.937Z,97524.07
2023-07-23T03:58:37.965Z,97540.78
2023-07-23T04:01:05.125Z,97542.87
2023-07-23T04:03:32.948Z,97536.21
2023-07-23T04:06:00.285Z,97526.81
2023-07-23T04:08:27.496Z,97526.09
2023-07-23T04:10:56.356Z,97517.51
2023-07-23T04:13:23.677Z,97516.15
2023-07-23T04:15:50.929Z,97517.52
2023-07-23T04:18:19.274Z,97511.88
2023-07-23T04:20:46.270Z,97522.88
2023-07-23T04:23:13.680Z,97525.24
2023-07-23T04:25:40.727Z,97525.43
2023-07-23T04:28:08.110Z,97523.83
2023-07-23T04:30:35.644Z,97515.59
2023-07-23T04:33:03.171Z,97518.02
2023-07-23T04:35:30.662Z,97519.98
2023-07-23T04:37:58.032Z,97521.98
2023-07-23T04:40:25.392Z,97516.15
2023-07-23T04:42:53.147Z,97517.39
2023-07-23T04:45:20.624Z,97521.97
2023-07-23T04:47:48.673Z,97523.61
2023-07-23T04:50:15.813Z,97524.49
2023-07-23T04:52:43.074Z,97519.09
2023-07-23T04:55:10.634Z,97524.25
2023-07-23T04:57:38.760Z,97524.93
2023-07-23T05:00:07.455Z,97523.80
2023-07-23T05:02:34.998Z,97526.19
2023-07-23T05:05:02.207Z,97524.25
2023-07-23T05:07:29.514Z,97527.80
2023-07-23T05:09:56.758Z,97528.61
2023-07-23T05:12:25.288Z,97531.80
2023-07-23T05:14:52.887Z,97525.53
2023-07-23T05:17:19.896Z,97531.03
2023-07-23T05:19:48.950Z,97536.95
2023-07-23T05:22:15.954Z,97536.38
2023-07-23T05:24:43.133Z,97541.70
2023-07-23T05:27:10.158Z,97542.73
2023-07-23T05:29:37.354Z,97547.66
2023-07-23T05:32:05.706Z,97551.98
2023-07-23T05:34:32.716Z,97552.38
2023-07-23T05:36:59.937Z,97550.01
2023-07-23T05:39:26.991Z,97552.76
2023-07-23T05:41:54.110Z,97554.34
2023-07-23T05:44:21.397Z,97553.16
2023-07-23T05:46:48.489Z,97548.89
2023-07-23T05:49:15.796Z,97559.92
2023-07-23T05:51:43.130Z,97561.75
2023-07-23T05:54:10.218Z,97566.71
2023-07-23T05:56:38.056Z,97570.87
2023-07-23T05:59:05.430Z,97575.63
2023-07-23T06:01:33.152Z,97572.70
2023-07-23T06:04:00.690Z,97571.55
2023-07-23T06:06:28.703Z,97574.72
2023-07-23T06:08:57.164Z,97567.45
2023-07-23T06:11:24.643Z,97571.41
2023-07-23T06:13:51.915Z,97579.45
2023-07-23T06:16:22.356Z,97574.54
2023-07-23T06:18:49.587Z,97581.02
2023-07-23T06:21:17.130Z,97578.64
2023-07-23T06:23:44.431Z,97578.27
2023-07-23T06:26:12.316Z,97581.40
2023-07-23T06:28:39.961Z,97579.83
2023-07-23T06:31:07.266Z,97576.29
2023-07-23T06:33:34.313Z,97571.38
2023-07-23T06:36:02.602Z,97575.51
2023-07-23T06:38:30.049Z,97573.95
2023-07-23T06:40:57.386Z,97566.86
2023-07-23T06:43:25.111Z,97570.22
2023-07-23T06:45:52.762Z,97564.89
2023-07-23T06:48:21.584Z,97573.16
2023-07-23T06:50:49.069Z,97579.64
2023-07-23T06:53:16.437Z,97582.59
2023-07-23T06:56:04.770Z,97580.05
2023-07-23T06:58:34.671Z,97577.86
2023-07-23T07:01:02.566Z,97578.83
2023-07-23T07:03:29.932Z,97578.41
2023-07-23T07:05:57.212Z,97579.43
2023-07-23T07:08:24.457Z,97577.83
2023-07-23T07:11:00.480Z,97574.65
2023-07-23T07:13:28.612Z,97581.33
2023-07-23T07:15:55.908Z,97583.05
2023-07-23T07:18:24.824Z,97588.71
2023-07-23T07:21:00.795Z,97583.15
2023-07-23T07:23:30.380Z,97588.27
2023-07-23T07:25:58.633Z,97588.03
2023-07-23T07:28:26.302Z,97587.81
2023-07-23T07:30:58.977Z,97587.61
2023-07-23T07:33:27.388Z,97585.44
2023-07-23T07:35:56.180Z,97579.14
2023-07-23T07:38:25.516Z,97587.17
2023-07-23T07:40:53.248Z,97586.17
2023-07-23T07:43:20.164Z,97582.96
2023-07-23T07:45:49.235Z,97586.23
2023-07-23T07:48:18.345Z,97587.57
2023-07-23T07:50:45.903Z,97584.95
2023-07-23T07:53:12.822Z,97590.22
2023-07-23T07:55:42.145Z,97588.92
2023-07-23T07:58:14.614Z,97596.38
2023-07-23T08:00:42.284Z,97595.55
2023-07-23T08:03:10.097Z,97598.44
2023-07-23T08:05:38.552Z,97599.13
2023-07-23T08:08:07.047Z,97592.94
2023-07-23T08:10:35.065Z,97602.34
2023-07-23T08:13:03.285Z,97598.66
2023-07-23T08:15:34.492Z,97606.22
2023-07-23T08:18:01.966Z,97605.08
2023-07-23T08:20:31.567Z,97610.64
2023-07-23T08:22:59.353Z,97603.75
2023-07-23T08:25:26.840Z,97605.02
2023-07-23T08:27:59.296Z,97599.34
2023-07-23T08:30:27.050Z,97604.73
2023-07-23T08:33:02.216Z,97606.22
2023-07-23T08:35:30.334Z,97604.50
2023-07-23T08:37:58.842Z,97606.30
2023-07-23T08:40:26.826Z,97606.34
2023-07-23T08:42:57.792Z,97597.30
2023-07-23T08:45:40.997Z,97607.11
2023-07-23T08:48:16.801Z,97608.37
2023-07-23T08:50:47.293Z,97605.33
2023-07-23T08:53:15.932Z,97609.46
2023-07-23T08:55:45.289Z,97610.13
2023-07-23T08:58:17.125Z,97608.35
2023-07-23T09:00:45.997Z,97613.13
2023-07-23T09:03:17.517Z,97608.55
2023-07-23T09:05:44.891Z,97604.84
2023-07-23T09:08:12.458Z,97607.63
2023-07-23T09:10:41.359Z,97604.95
2023-07-23T09:13:15.936Z,97607.30
2023-07-23T09:15:55.544Z,97600.70
2023-07-23T09:18:22.712Z,97603.38
2023-07-23T09:20:50.398Z,97605.06
2023-07-23T09:23:17.826Z,97602.12
2023-07-23T09:25:45.187Z,97606.23
2023-07-23T09:28:22.676Z,97607.89
2023-07-23T09:30:56.373Z,97611.56
2023-07-23T09:33:29.931Z,97602.91
2023-07-23T09:36:01.455Z,97604.47
2023-07-23T09:38:29.404Z,97600.48
2023-07-23T09:40:56.977Z,97607.13
2023-07-23T09:43:24.719Z,97601.95
2023-07-23T09:45:52.858Z,97602.47
2023-07-23T09:48:20.682Z,97603.03
2023-07-23T09:50:53.079Z,97594.92
2023-07-23T09:53:21.222Z,97598.95
2023-07-23T09:55:48.600Z,97594.18
2023-07-23T09:58:17.973Z,97596.44
2023-07-23T10:00:47.051Z,97591.47
2023-07-23T10:03:16.418Z,97590.86
2023-07-23T10:05:44.365Z,97597.53
2023-07-23T10:08:12.873Z,97588.39
2023-07-23T10:10:39.957Z,97587.23
2023-07-23T10:13:07.464Z,97590.09
2023-07-23T10:15:35.704Z,97586.12
2023-07-23T10:18:03.368Z,97592.72
2023-07-23T10:20:33.010Z,97589.90
2023-07-23T10:23:06.100Z,97589.84
2023-07-23T10:25:39.762Z,97583.95
2023-07-23T10:28:08.793Z,97585.42
2023-07-23T10:30:39.940Z,97585.02
2023-07-23T10:33:16.197Z,97588.83
2023-07-23T10:35:59.033Z,97579.41
2023-07-23T10:38:32.523Z,97571.50
2023-07-23T10:41:00.629Z,97562.08
2023-07-23T10:43:45.391Z,97569.33
2023-07-23T10:46:15.858Z,97565.55
2023-07-23T10:48:52.095Z,97562.93
2023-07-23T10:51:24.229Z,97571.95
2023-07-23T10:53:58.021Z,97569.79
2023-07-23T10:56:36.555Z,97574.77
2023-07-23T10:59:09.402Z,97571.63
2023-07-23T11:01:41.206Z,97570.77
2023-07-23T11:04:20.885Z,97569.20
2023-07-23T11:06:58.021Z,97576.78
2023-07-23T11:09:28.300Z,97567.53
2023-07-23T11:11:56.647Z,97561.08
2023-07-23T11:14:28.713Z,97566.77
2023-07-23T11:16:59.019Z,97573.72
2023-07-23T11:19:28.059Z,97562.09
2023-07-23T11:21:57.104Z,97576.84
2023-07-23T11:24:27.203Z,97565.19
2023-07-23T11:26:58.880Z,97546.28
2023-07-23T11:29:26.725Z,97564.06
2023-07-23T11:31:54.402Z,97562.70
2023-07-23T11:34:24.157Z,97562.84
2023-07-23T11:36:53.707Z,97559.45
2023-07-23T11:39:23.780Z,97551.98
2023-07-23T11:41:53.896Z,97562.77
2023-07-23T11:44:21.735Z,97556.56
2023-07-23T11:46:48.969Z,97554.56
2023-07-23T11:49:16.389Z,97547.62
2023-07-23T11:51:43.798Z,97550.56
2023-07-23T11:54:12.277Z,97550.34
2023-07-23T11:56:46.299Z,97550.08
2023-07-23T11:59:18.101Z,97555.11
2023-07-23T12:01:44.512Z,97553.57
2023-07-23T12:04:11.762Z,97561.37
2023-07-23T12:06:40.349Z,97555.72
2023-07-23T12:09:09.738Z,97551.16
2023-07-23T12:11:41.040Z,97559.09
2023-07-23T12:14:09.881Z,97549.11
2023-07-23T12:16:43.960Z,97551.98
2023-07-23T12:19:14.094Z,97554.58
2023-07-23T12:21:43.774Z,97549.88
2023-07-23T12:24:27.914Z,97558.05
2023-07-23T12:26:57.351Z,97550.89
2023-07-23T12:29:26.383Z,97541.67
2023-07-23T12:32:11.203Z,97552.72
2023-07-23T12:34:39.748Z,97548.81
2023-07-23T12:37:07.806Z,97551.05
2023-07-23T12:39:34.936Z,97553.50
2023-07-23T12:42:02.154Z,97554.37
2023-07-23T12:44:30.485Z,97552.50
2023-07-23T12:46:57.828Z,97548.77
2023-07-23T12:49:25.196Z,97538.34
2023-07-23T12:51:52.534Z,97535.29
2023-07-23T12:54:19.868Z,97542.77
2023-07-23T12:56:47.208Z,97542.23
2023-07-23T12:59:14.502Z,97535.59
2023-07-23T13:01:41.797Z,97537.72
2023-07-23T13:04:08.985Z,97542.22
2023-07-23T13:06:37.593Z,97533.08
2023-07-23T13:09:06.137Z,97528.93
2023-07-23T13:11:33.890Z,97532.63
2023-07-23T13:14:01.031Z,97526.32
2023-07-23T13:16:28.557Z,97529.73
2023-07-23T13:18:56.033Z,97522.53
2023-07-23T13:21:25.184Z,97514.43
2023-07-23T13:23:52.959Z,97515.48
2023-07-23T13:26:20.269Z,97521.05
2023-07-23T13:28:47.566Z,97519.86
2023-07-23T13:31:16.648Z,97518.16
2023-07-23T13:33:44.081Z,97508.97
2023-07-23T13:36:11.784Z,97514.44
2023-07-23T13:38:39.140Z,97510.89
2023-07-23T13:41:06.580Z,97516.32
2023-07-23T13:43:34.225Z,97513.86
2023-07-23T13:46:01.516Z,97515.26
2023-07-23T13:48:28.626Z,97508.02
2023-07-23T13:50:55.897Z,97509.12
2023-07-23T13:53:23.265Z,97504.62
2023-07-23T13:55:50.452Z,97505.45
2023-07-23T13:58:17.642Z,97509.36
2023-07-23T14:00:44.851Z,97507.51
2023-07-23T14:03:12.073Z,97504.32
2023-07-23T14:05:39.289Z,97503.39
2023-07-23T14:08:06.540Z,97501.16
2023-07-23T14:10:33.873Z,97502.91
2023-07-23T14:13:01.064Z,97502.23
2023-07-23T14:15:28.355Z,97499.50
2023-07-23T14:17:55.725Z,97503.47
2023-07-23T14:20:23.203Z,97496.34
2023-07-23T14:22:50.367Z,97495.23
2023-07-23T14:25:17.802Z,97495.05
2023-07-23T14:27:45.070Z,97495.56
2023-07-23T14:30:12.697Z,97495.32
2023-07-23T14:32:39.963Z,97489.31
2023-07-23T14:35:07.481Z,97494.33
2023-07-23T14:37:34.917Z,97493.44
2023-07-23T14:40:06.062Z,97485.85
2023-07-23T14:42:33.468Z,97487.69
2023-07-23T14:45:00.767Z,97483.59
2023-07-23T14:47:27.892Z,97484.92
2023-07-23T14:49:55.577Z,97491.05
2023-07-23T14:52:23.059Z,97491.39
2023-07-23T14:54:50.387Z,97495.28
2023-07-23T14:57:17.814Z,97492.87
2023-07-23T14:59:45.243Z,97492.86
2023-07-23T15:02:12.681Z,97493.53
2023-07-23T15:04:39.989Z,97494.19
2023-07-23T15:07:07.529Z,97493.06
2023-07-23T15:09:34.700Z,97505.77
2023-07-23T15:12:02.509Z,97505.95
2023-07-23T15:14:30.311Z,97506.00
2023-07-23T15:16:58.165Z,97509.31
2023-07-23T15:19:26.064Z,97508.43
2023-07-23T15:21:53.825Z,97507.76
2023-07-23T15:24:22.740Z,97500.80
2023-07-23T15:26:52.674Z,97503.53
2023-07-23T15:29:21.511Z,97499.70
2023-07-23T15:31:48.869Z,97500.16
2023-07-23T15:34:16.093Z,97492.16
2023-07-23T15:36:43.114Z,97499.48
2023-07-23T15:39:10.300Z,97488.34
2023-07-23T15:41:37.701Z,97495.98
2023-07-23T15:44:05.049Z,97493.48
2023-07-23T15:46:32.108Z,97487.53
2023-07-23T15:48:59.248Z,97493.55
2023-07-23T15:51:27.392Z,97492.68
2023-07-23T15:53:54.648Z,97499.33
2023-07-23T15:56:21.787Z,97493.08
2023-07-23T15:58:49.698Z,97501.42
2023-07-23T16:01:17.057Z,97493.41
2023-07-23T16:03:44.530Z,97497.99
2023-07-23T16:06:12.747Z,97503.11
2023-07-23T16:08:40.457Z,97497.73
2023-07-23T16:11:07.539Z,97501.72
2023-07-23T16:13:36.061Z,97504.02
2023-07-23T16:16:03.308Z,97498.45
2023-07-23T16:18:30.646Z,97505.41
2023-07-23T16:20:57.911Z,97504.17
2023-07-23T16:23:25.208Z,97505.73
2023-07-23T16:25:52.782Z,97509.23
2023-07-23T16:28:19.987Z,97500.59
2023-07-23T16:30:47.736Z,97508.26
2023-07-23T16:33:16.029Z,97505.02
2023-07-23T16:35:43.733Z,97508.75
2023-07-23T16:38:12.389Z,97509.72
2023-07-23T16:40:45.248Z,97510.33
2023-07-23T16:43:18.306Z,97511.98
2023-07-23T16:45:46.604Z,97509.48
2023-07-23T16:48:16.612Z,97517.78
2023-07-23T16:50:46.035Z,97517.03
2023-07-23T16:53:13.826Z,97516.17
2023-07-23T16:55:41.280Z,97515.04
2023-07-23T16:58:08.459Z,97512.70
2023-07-23T17:00:35.625Z,97511.13
2023-07-23T17:03:03.033Z,97511.98
2023-07-23T17:05:30.430Z,97506.77
2023-07-23T17:07:57.784Z,97514.09
2023-07-23T17:10:25.279Z,97514.79
2023-07-23T17:12:52.653Z,97512.71
2023-07-23T17:15:19.976Z,97507.85
2023-07-23T17:17:47.811Z,97507.32
2023-07-23T17:20:15.049Z,97509.53
2023-07-23T17:22:42.293Z,97508.49
2023-07-23T17:25:10.174Z,97515.26
2023-07-23T17:27:37.585Z,97513.66
2023-07-23T17:30:07.088Z,97514.31
2023-07-23T17:32:34.571Z,97509.25
2023-07-23T17:35:01.788Z,97511.44
2023-07-23T17:37:29.005Z,97516.78
2023-07-23T17:39:56.244Z,97517.02
2023-07-23T17:42:23.336Z,97512.68
2023-07-23T17:44:50.674Z,97513.69
2023-07-23T17:47:18.115Z,97514.48
2023-07-23T17:49:45.090Z,97522.44
2023-07-23T17:52:12.558Z,97518.77
2023-07-23T17:54:39.967Z,97520.03
2023-07-23T17:57:07.264Z,97519.42
2023-07-23T17:59:34.468Z,97520.12
2023-07-23T18:02:01.641Z,97524.16
2023-07-23T18:04:29.226Z,97526.38
2023-07-23T18:06:58.373Z,97522.84
2023-07-23T18:09:25.528Z,97526.09
2023-07-23T18:11:52.778Z,97532.56
2023-07-23T18:14:19.964Z,97534.52
2023-07-23T18:16:47.377Z,97534.90
2023-07-23T18:19:15.784Z,97531.69
2023-07-23T18:21:43.051Z,97541.32
2023-07-23T18:24:10.166Z,97545.56
2023-07-23T18:26:37.569Z,97552.02
2023-07-23T18:29:04.683Z,97549.75
2023-07-23T18:31:35.997Z,97550.20
2023-07-23T18:34:02.027Z,97556.83
2023-07-23T18:36:29.846Z,97555.16
2023-07-23T18:38:57.433Z,97553.08
2023-07-23T18:41:35.116Z,97556.92
2023-07-23T18:44:04.091Z,97555.80
2023-07-23T18:46:31.741Z,97552.34
2023-07-23T18:48:59.295Z,97555.56
2023-07-23T18:51:26.614Z,97558.38
2023-07-23T18:53:53.803Z,97561.78
2023-07-23T18:56:20.884Z,97557.70
2023-07-23T18:58:48.406Z,97560.14
2023-07-23T19:01:15.501Z,97560.98
2023-07-23T19:03:44.909Z,97566.11
2023-07-23T19:06:12.072Z,97560.05
2023-07-23T19:08:40.028Z,97564.41
2023-07-23T19:11:07.274Z,97564.84
2023-07-23T19:13:34.415Z,97568.22
2023-07-23T19:16:02.201Z,97564.70
2023-07-23T19:18:29.683Z,97566.69
2023-07-23T19:20:56.846Z,97563.16
2023-07-23T19:23:24.092Z,97567.53
2023-07-23T19:25:51.313Z,97563.23
2023-07-23T19:28:18.587Z,97567.80
2023-07-23T19:30:45.778Z,97569.78
2023-07-23T19:33:12.815Z,97568.38
2023-07-23T19:35:39.969Z,97570.36
2023-07-23T19:38:07.251Z,97575.50
2023-07-23T19:40:34.604Z,97576.48
2023-07-23T19:43:01.979Z,97576.30
2023-07-23T19:45:29.341Z,97585.97
2023-07-23T19:47:56.914Z,97582.02
2023-07-23T19:50:24.310Z,97579.48
2023-07-23T19:52:51.503Z,97581.04
2023-07-23T19:55:18.738Z,97581.03
2023-07-23T19:57:46.210Z,97584.19
2023-07-23T20:00:14.065Z,97579.46
2023-07-23T20:02:41.296Z,97582.61
2023-07-23T20:05:09.202Z,97580.23
2023-07-23T20:07:36.380Z,97581.41
2023-07-23T20:10:04.544Z,97587.69
2023-07-23T20:12:31.870Z,97588.88
2023-07-23T20:14:59.358Z,97588.27
2023-07-23T20:17:27.282Z,97591.98
2023-07-23T20:19:54.580Z,97586.09
2023-07-23T20:22:21.828Z,97590.20
2023-07-23T20:24:49.169Z,97597.86
2023-07-23T20:27:16.793Z,97591.56
2023-07-23T20:29:44.601Z,97591.95
2023-07-23T20:32:13.405Z,97585.45
2023-07-23T20:34:41.491Z,97587.22
2023-07-23T20:37:09.818Z,97584.81
2023-07-23T20:39:37.741Z,97588.15
2023-07-23T20:42:06.049Z,97594.23
2023-07-23T20:44:33.199Z,97595.80
2023-07-23T20:47:00.587Z,97599.70
2023-07-23T20:49:28.042Z,97599.69
2023-07-23T20:51:55.139Z,97594.76
2023-07-23T20:54:22.582Z,97595.72
2023-07-23T20:56:49.958Z,97594.88
2023-07-23T20:59:17.133Z,97592.93
2023-07-23T21:01:44.375Z,97597.81
2023-07-23T21:04:13.261Z,97593.48
2023-07-23T21:06:40.374Z,97592.28
2023-07-23T21:09:07.762Z,97592.67
2023-07-23T21:11:34.897Z,97594.98
2023-07-23T21:14:01.885Z,97591.23
2023-07-23T21:16:29.975Z,97594.73
2023-07-23T21:18:57.915Z,97599.23
2023-07-23T21:21:25.259Z,97604.12
2023-07-23T21:23:52.360Z,97604.48
2023-07-23T21:26:19.518Z,97602.11
2023-07-23T21:28:46.529Z,97602.05
2023-07-23T21:31:13.652Z,97594.95
2023-07-23T21:33:41.877Z,97602.19
2023-07-23T21:36:08.928Z,97603.92
2023-07-23T21:38:36.055Z,97606.67
2023-07-23T21:41:03.848Z,97603.89
2023-07-23T21:43:31.136Z,97606.22
2023-07-23T21:46:00.148Z,97608.15
2023-07-23T21:48:27.658Z,97615.37
2023-07-23T21:50:55.739Z,97613.94
2023-07-23T21:53:23.148Z,97610.80
2023-07-23T21:55:50.288Z,97609.39
2023-07-23T21:58:19.118Z,97607.59
2023-07-23T22:00:46.732Z,97609.52
2023-07-23T22:03:14.379Z,97619.69
2023-07-23T22:05:41.940Z,97619.61
2023-07-23T22:08:09.464Z,97624.87
2023-07-23T22:10:36.851Z,97620.31
2023-07-23T22:13:04.116Z,97620.66
2023-07-23T22:15:31.333Z,97615.72
2023-07-23T22:17:58.742Z,97613.52
2023-07-23T22:20:26.113Z,97618.78
2023-07-23T22:22:53.746Z,97618.59
2023-07-23T22:25:20.842Z,97617.77
2023-07-23T22:27:48.081Z,97611.88
2023-07-23T22:30:29.343Z,97615.77
2023-07-23T22:32:44.212Z,97612.81
2023-07-23T22:35:11.319Z,97610.62
2023-07-23T22:37:38.594Z,97607.48
2023-07-23T22:40:07.480Z,97605.88
2023-07-23T22:42:34.633Z,97605.05
2023-07-23T22:45:01.832Z,97605.82
2023-07-23T22:47:29.740Z,97607.73
2023-07-23T22:49:57.658Z,97613.77
2023-07-23T22:52:27.446Z,97616.27
2023-07-23T22:54:54.059Z,97624.89
2023-07-23T22:57:22.795Z,97627.23
2023-07-23T22:59:50.217Z,97622.30
2023-07-23T23:02:17.499Z,97622.53
2023-07-23T23:04:44.598Z,97620.93
2023-07-23T23:07:11.938Z,97619.94
2023-07-23T23:09:39.073Z,97619.67
2023-07-23T23:12:06.743Z,97616.83
2023-07-23T23:14:34.116Z,97611.48
2023-07-23T23:17:01.412Z,97613.97
2023-07-23T23:19:28.677Z,97610.95
2023-07-23T23:21:55.869Z,97613.09
2023-07-23T23:24:23.051Z,97612.45
2023-07-23T23:26:50.361Z,97613.39
2023-07-23T23:29:17.653Z,97608.67
2023-07-23T23:31:44.941Z,97610.98
2023-07-23T23:34:12.328Z,97608.98
2023-07-23T23:36:39.427Z,97605.83
2023-07-23T23:39:06.577Z,97601.52
2023-07-23T23:41:33.768Z,97599.52
2023-07-23T23:44:00.809Z,97596.13
2023-07-23T23:46:28.467Z,97598.23
2023-07-23T23:48:55.992Z,97602.15
2023-07-23T23:51:23.219Z,97599.36
2023-07-23T23:53:50.377Z,97603.06
2023-07-23T23:56:17.649Z,97593.42
2023-07-23T23:58:44.861Z,97590.04
